createdAt,value
2023-01-31T00:01:34.228Z,2.90
2023-01-31T00:04:03.439Z,4.05
2023-01-31T00:06:44.988Z,2.42
2023-01-31T00:09:12.992Z,3.85
2023-01-31T00:11:40.090Z,2.70
2023-01-31T00:14:08.341Z,3.53
2023-01-31T00:16:35.208Z,2.92
2023-01-31T00:19:02.918Z,3.00
2023-01-31T00:21:30.997Z,2.55
2023-01-31T00:23:58.808Z,3.17
2023-01-31T00:26:29.724Z,3.05
2023-01-31T00:28:58.358Z,3.03
2023-01-31T00:31:27.651Z,3.47
2023-01-31T00:33:56.330Z,3.55
2023-01-31T00:36:25.623Z,2.72
2023-01-31T00:38:54.767Z,3.22
2023-01-31T00:41:24.118Z,3.20
2023-01-31T00:43:51.301Z,2.90
2023-01-31T00:46:20.288Z,4.43
2023-01-31T00:48:47.459Z,2.85
2023-01-31T00:51:15.052Z,2.65
2023-01-31T00:53:41.919Z,4.13
2023-01-31T00:56:14.306Z,2.50
2023-01-31T00:58:42.018Z,3.92
2023-01-31T01:01:10.557Z,2.78
2023-01-31T01:03:39.099Z,3.53
2023-01-31T01:06:06.887Z,2.75
2023-01-31T01:08:35.444Z,3.20
2023-01-31T01:11:14.852Z,3.28
2023-01-31T01:13:42.469Z,3.53
2023-01-31T01:16:15.941Z,3.03
2023-01-31T01:18:44.814Z,3.30
2023-01-31T01:21:16.095Z,3.08
2023-01-31T01:23:43.586Z,2.47
2023-01-31T01:26:15.779Z,2.92
2023-01-31T01:28:42.581Z,3.10
2023-01-31T01:31:11.206Z,3.30
2023-01-31T01:33:40.983Z,3.92
2023-01-31T01:36:13.275Z,3.13
2023-01-31T01:38:42.092Z,3.05
2023-01-31T01:41:10.203Z,3.63
2023-01-31T01:43:41.202Z,2.97
2023-01-31T01:46:11.083Z,2.92
2023-01-31T01:48:38.573Z,3.25
2023-01-31T01:51:07.281Z,3.80
2023-01-31T01:53:39.440Z,3.47
2023-01-31T01:56:11.466Z,4.13
2023-01-31T01:58:44.276Z,3.17
2023-01-31T02:01:13.780Z,3.63
2023-01-31T02:03:41.563Z,2.75
2023-01-31T02:06:08.693Z,3.33
2023-01-31T02:08:37.487Z,2.42
2023-01-31T02:11:13.778Z,3.72
2023-01-31T02:13:42.096Z,4.28
2023-01-31T02:16:14.887Z,3.00
2023-01-31T02:18:42.762Z,2.33
2023-01-31T02:21:39.529Z,2.92
2023-01-31T02:24:15.016Z,2.88
2023-01-31T02:27:08.140Z,3.20
2023-01-31T02:30:11.204Z,4.22
2023-01-31T02:32:54.733Z,2.85
2023-01-31T02:35:30.789Z,3.13
2023-01-31T02:38:30.396Z,2.60
2023-01-31T02:41:15.209Z,2.88
2023-01-31T02:44:15.941Z,2.53
2023-01-31T02:47:03.398Z,2.75
2023-01-31T02:49:39.652Z,2.33
2023-01-31T02:52:17.185Z,3.20
2023-01-31T02:55:36.569Z,3.03
2023-01-31T02:58:07.371Z,2.75
2023-01-31T03:00:37.184Z,2.80
2023-01-31T03:03:06.720Z,3.28
2023-01-31T03:05:33.702Z,3.15
2023-01-31T03:08:04.995Z,3.47
2023-01-31T03:10:55.612Z,2.60
2023-01-31T03:13:54.532Z,3.30
2023-01-31T03:16:47.614Z,2.90
2023-01-31T03:19:49.926Z,3.63
2023-01-31T03:22:25.261Z,3.28
2023-01-31T03:24:53.249Z,3.33
2023-01-31T03:27:21.121Z,3.05
2023-01-31T03:29:52.868Z,3.00
2023-01-31T03:32:45.338Z,2.92
2023-01-31T03:35:12.719Z,3.08
2023-01-31T03:38:04.349Z,3.42
2023-01-31T03:40:38.687Z,2.45
2023-01-31T03:43:27.007Z,2.85
2023-01-31T03:46:05.769Z,2.58
2023-01-31T03:48:37.744Z,2.83
2023-01-31T03:51:13.025Z,2.70
2023-01-31T03:54:03.785Z,3.33
2023-01-31T03:56:58.366Z,2.78
2023-01-31T03:59:32.634Z,2.83
2023-01-31T04:02:01.849Z,2.80
2023-01-31T04:04:37.162Z,3.22
2023-01-31T04:07:04.985Z,3.15
2023-01-31T04:09:32.203Z,2.85
2023-01-31T04:12:02.279Z,2.85
2023-01-31T04:14:29.793Z,2.38
2023-01-31T04:16:56.705Z,2.85
2023-01-31T04:19:23.498Z,3.05
2023-01-31T04:21:50.206Z,2.70
2023-01-31T04:24:17.008Z,2.50
2023-01-31T04:26:43.865Z,23.33
2023-01-31T04:29:10.927Z,2.95
2023-01-31T04:31:38.029Z,14.70
2023-01-31T04:34:04.844Z,4.43
2023-01-31T04:36:32.073Z,3.33
2023-01-31T04:39:00.853Z,4.28
2023-01-31T04:41:27.851Z,5.80
2023-01-31T04:43:54.591Z,5.40
2023-01-31T04:46:21.516Z,4.72
2023-01-31T04:48:48.261Z,3.83
2023-01-31T04:51:15.117Z,3.58
2023-01-31T04:53:44.595Z,3.17
2023-01-31T04:56:11.485Z,3.45
2023-01-31T04:58:38.253Z,3.03
2023-01-31T05:01:05.077Z,3.70
2023-01-31T05:03:31.894Z,2.75
2023-01-31T05:05:58.612Z,3.17
2023-01-31T05:08:25.489Z,4.22
2023-01-31T05:10:58.995Z,4.53
2023-01-31T05:13:26.350Z,3.90
2023-01-31T05:15:54.212Z,4.38
2023-01-31T05:18:21.008Z,3.63
2023-01-31T05:20:49.987Z,4.32
2023-01-31T05:23:19.409Z,3.75
2023-01-31T05:25:49.864Z,4.10
2023-01-31T05:28:17.074Z,4.03
2023-01-31T05:30:44.119Z,4.47
2023-01-31T05:33:11.587Z,4.05
2023-01-31T05:35:39.370Z,4.20
2023-01-31T05:38:06.144Z,3.58
2023-01-31T05:40:33.004Z,3.88
2023-01-31T05:43:03.995Z,4.25
2023-01-31T05:45:31.502Z,4.25
2023-01-31T05:47:58.422Z,4.07
2023-01-31T05:50:25.182Z,4.00
2023-01-31T05:52:53.721Z,4.35
2023-01-31T05:55:21.831Z,3.88
2023-01-31T05:57:48.861Z,4.65
2023-01-31T06:00:16.447Z,5.03
2023-01-31T06:02:43.228Z,3.40
2023-01-31T06:05:10.476Z,5.20
2023-01-31T06:07:37.412Z,4.75
2023-01-31T06:10:05.082Z,5.53
2023-01-31T06:12:32.058Z,4.07
2023-01-31T06:14:59.310Z,5.57
2023-01-31T06:17:27.627Z,4.28
2023-01-31T06:19:55.432Z,4.30
2023-01-31T06:22:22.109Z,4.80
2023-01-31T06:24:48.824Z,4.55
2023-01-31T06:27:15.495Z,4.47
2023-01-31T06:29:42.178Z,4.68
2023-01-31T06:32:08.998Z,5.57
2023-01-31T06:34:35.693Z,4.88
2023-01-31T06:37:02.443Z,4.53
2023-01-31T06:39:29.202Z,5.43
2023-01-31T06:41:56.474Z,5.72
2023-01-31T06:44:23.349Z,6.60
2023-01-31T06:46:50.122Z,6.18
2023-01-31T06:49:16.871Z,6.70
2023-01-31T06:51:43.523Z,5.60
2023-01-31T06:54:10.278Z,6.68
2023-01-31T06:56:36.970Z,7.38
2023-01-31T06:59:03.713Z,6.80
2023-01-31T07:01:30.497Z,6.97
2023-01-31T07:03:57.228Z,7.18
2023-01-31T07:06:23.942Z,7.05
2023-01-31T07:08:50.770Z,5.82
2023-01-31T07:11:17.490Z,5.70
2023-01-31T07:13:47.685Z,6.43
2023-01-31T07:16:16.809Z,5.25
2023-01-31T07:18:43.641Z,5.85
2023-01-31T07:21:10.908Z,6.20
2023-01-31T07:23:37.656Z,6.18
2023-01-31T07:26:05.620Z,5.75
2023-01-31T07:28:32.368Z,6.28
2023-01-31T07:31:11.650Z,5.57
2023-01-31T07:33:39.602Z,6.60
2023-01-31T07:36:08.121Z,7.53
2023-01-31T07:38:35.441Z,7.35
2023-01-31T07:41:03.388Z,7.68
2023-01-31T07:43:32.071Z,6.68
2023-01-31T07:45:58.963Z,6.88
2023-01-31T07:48:25.984Z,7.47
2023-01-31T07:50:58.318Z,6.82
2023-01-31T07:53:26.737Z,7.00
2023-01-31T07:55:53.520Z,7.10
2023-01-31T07:58:20.250Z,6.72
2023-01-31T08:01:05.589Z,6.32
2023-01-31T08:03:33.695Z,6.55
2023-01-31T08:06:12.234Z,6.15
2023-01-31T08:08:40.577Z,6.35
2023-01-31T08:11:07.817Z,6.65
2023-01-31T08:13:35.397Z,5.40
2023-01-31T08:16:03.701Z,6.07
2023-01-31T08:18:30.654Z,6.03
2023-01-31T08:20:57.984Z,5.15
2023-01-31T08:23:24.768Z,6.53
2023-01-31T08:25:51.480Z,5.80
2023-01-31T08:28:18.250Z,6.30
2023-01-31T08:30:50.393Z,5.20
2023-01-31T08:33:23.528Z,6.75
2023-01-31T08:35:50.478Z,8.30
2023-01-31T08:38:17.382Z,6.90
2023-01-31T08:40:44.370Z,6.20
2023-01-31T08:43:11.632Z,7.22
2023-01-31T08:45:38.591Z,7.75
2023-01-31T08:48:05.800Z,7.32
2023-01-31T08:50:33.092Z,8.07
2023-01-31T08:53:02.192Z,7.20
2023-01-31T08:55:31.158Z,8.13
2023-01-31T08:58:00.275Z,8.60
2023-01-31T09:00:27.963Z,8.55
2023-01-31T09:02:57.446Z,7.85
2023-01-31T09:05:25.532Z,8.43
2023-01-31T09:07:52.328Z,6.88
2023-01-31T09:10:20.463Z,7.72
2023-01-31T09:12:47.467Z,7.82
2023-01-31T09:15:14.757Z,7.22
2023-01-31T09:17:42.794Z,7.15
2023-01-31T09:20:10.214Z,8.65
2023-01-31T09:22:37.539Z,8.25
2023-01-31T09:25:04.953Z,7.28
2023-01-31T09:27:32.193Z,8.35
2023-01-31T09:29:58.958Z,7.40
2023-01-31T09:32:25.741Z,8.25
2023-01-31T09:34:52.484Z,7.75
2023-01-31T09:37:19.326Z,7.75
2023-01-31T09:39:46.073Z,7.10
2023-01-31T09:42:23.586Z,7.80
2023-01-31T09:45:15.807Z,7.47
2023-01-31T09:47:52.285Z,6.32
2023-01-31T09:50:37.735Z,6.93
2023-01-31T09:53:04.690Z,6.32
2023-01-31T09:55:44.732Z,6.55
2023-01-31T09:58:42.243Z,6.68
2023-01-31T10:01:32.146Z,6.18
2023-01-31T10:04:28.237Z,5.10
2023-01-31T10:07:03.509Z,5.93
2023-01-31T10:09:52.611Z,5.20
2023-01-31T10:12:25.169Z,4.90
2023-01-31T10:14:58.574Z,5.05
2023-01-31T10:17:31.642Z,4.80
2023-01-31T10:20:05.668Z,4.72
2023-01-31T10:22:59.347Z,3.95
2023-01-31T10:26:02.381Z,4.50
2023-01-31T10:28:59.950Z,4.35
2023-01-31T10:31:44.281Z,4.50
2023-01-31T10:34:25.055Z,4.60
2023-01-31T10:37:22.032Z,3.97
2023-01-31T10:39:53.908Z,4.63
2023-01-31T10:42:33.573Z,4.13
2023-01-31T10:45:31.089Z,4.75
2023-01-31T10:48:16.161Z,5.07
2023-01-31T10:51:04.563Z,3.47
2023-01-31T10:53:50.419Z,5.03
2023-01-31T10:56:38.031Z,5.25
2023-01-31T10:59:18.692Z,5.38
2023-01-31T11:01:45.527Z,5.18
2023-01-31T11:04:40.394Z,5.15
2023-01-31T11:07:07.194Z,5.00
2023-01-31T11:09:38.124Z,4.55
2023-01-31T11:12:07.433Z,5.18
2023-01-31T11:14:36.290Z,5.60
2023-01-31T11:17:09.528Z,5.20
2023-01-31T11:19:41.056Z,5.22
2023-01-31T11:22:16.101Z,5.35
2023-01-31T11:24:48.726Z,5.88
2023-01-31T11:27:26.563Z,6.20
2023-01-31T11:29:55.604Z,6.10
2023-01-31T11:32:25.562Z,5.50
2023-01-31T11:35:03.483Z,5.93
2023-01-31T11:37:34.377Z,6.25
2023-01-31T11:40:16.623Z,7.35
2023-01-31T11:42:53.710Z,6.50
2023-01-31T11:45:23.183Z,6.45
2023-01-31T11:47:55.930Z,7.30
2023-01-31T11:50:27.483Z,6.78
2023-01-31T11:53:00.499Z,7.05
2023-01-31T11:55:34.452Z,8.10
2023-01-31T11:58:02.835Z,8.40
2023-01-31T12:00:33.305Z,8.93
2023-01-31T12:03:13.562Z,8.27
2023-01-31T12:05:45.301Z,8.15
2023-01-31T12:08:41.398Z,9.02
2023-01-31T12:11:20.299Z,8.15
2023-01-31T12:13:54.663Z,7.53
2023-01-31T12:16:24.491Z,8.70
2023-01-31T12:19:13.212Z,9.23
2023-01-31T12:22:07.578Z,9.30
2023-01-31T12:24:52.543Z,8.13
2023-01-31T12:27:34.191Z,7.05
2023-01-31T12:30:15.603Z,7.75
2023-01-31T12:33:06.810Z,7.78
2023-01-31T12:36:11.139Z,8.35
2023-01-31T12:38:48.939Z,8.55
2023-01-31T12:41:33.691Z,7.75
2023-01-31T12:44:16.217Z,8.60
2023-01-31T12:47:10.979Z,8.60
2023-01-31T12:50:02.477Z,9.45
2023-01-31T12:52:49.545Z,8.98
2023-01-31T12:55:39.373Z,9.95
2023-01-31T12:58:25.039Z,8.80
2023-01-31T13:01:27.511Z,9.32
2023-01-31T13:04:38.516Z,10.38
2023-01-31T13:07:15.614Z,8.82
2023-01-31T13:09:44.663Z,9.07
2023-01-31T13:12:25.401Z,9.77
2023-01-31T13:15:04.302Z,9.00
2023-01-31T13:17:33.680Z,9.43
2023-01-31T13:20:19.931Z,8.65
2023-01-31T13:22:53.237Z,9.23
2023-01-31T13:25:27.908Z,8.98
2023-01-31T13:28:02.049Z,9.63
2023-01-31T13:30:39.407Z,9.50
2023-01-31T13:33:22.989Z,8.50
2023-01-31T13:36:06.385Z,8.43
2023-01-31T13:38:44.343Z,9.00
2023-01-31T13:41:25.936Z,9.05
2023-01-31T13:43:52.802Z,7.82
2023-01-31T13:46:24.478Z,8.73
2023-01-31T13:49:06.800Z,8.05
2023-01-31T13:51:53.805Z,7.88
2023-01-31T13:54:30.280Z,6.22
2023-01-31T13:56:59.306Z,7.75
2023-01-31T13:59:29.525Z,7.78
2023-01-31T14:01:59.883Z,7.45
2023-01-31T14:04:30.520Z,7.40
2023-01-31T14:07:07.850Z,7.30
2023-01-31T14:09:42.362Z,6.35
2023-01-31T14:12:17.928Z,6.03
2023-01-31T14:14:49.187Z,6.32
2023-01-31T14:17:22.061Z,5.93
2023-01-31T14:19:51.899Z,5.75
2023-01-31T14:22:21.027Z,5.40
2023-01-31T14:24:50.082Z,5.20
2023-01-31T14:27:21.631Z,5.05
2023-01-31T14:30:06.508Z,5.20
2023-01-31T14:32:38.993Z,5.20
2023-01-31T14:35:14.651Z,5.28
2023-01-31T14:38:06.501Z,5.00
2023-01-31T14:41:07.534Z,5.20
2023-01-31T14:44:13.623Z,5.88
2023-01-31T14:46:49.252Z,5.78
2023-01-31T14:49:32.329Z,6.05
2023-01-31T14:52:18.249Z,6.07
2023-01-31T14:55:07.793Z,6.40
2023-01-31T14:57:42.508Z,6.13
2023-01-31T15:00:30.313Z,7.05
2023-01-31T15:03:34.881Z,6.75
2023-01-31T15:06:12.927Z,7.53
2023-01-31T15:08:43.312Z,7.82
2023-01-31T15:11:41.955Z,6.47
2023-01-31T15:14:34.777Z,7.72
2023-01-31T15:17:33.785Z,7.80
2023-01-31T15:20:29.752Z,7.93
2023-01-31T15:23:02.063Z,8.27
2023-01-31T15:25:35.646Z,7.80
2023-01-31T15:28:03.940Z,7.70
2023-01-31T15:30:34.832Z,7.35
2023-01-31T15:33:13.258Z,7.97
2023-01-31T15:35:54.415Z,8.88
2023-01-31T15:38:29.865Z,8.88
2023-01-31T15:41:20.156Z,8.90
2023-01-31T15:43:48.311Z,8.65
2023-01-31T15:46:23.036Z,8.90
2023-01-31T15:48:50.315Z,9.80
2023-01-31T15:51:18.530Z,8.57
2023-01-31T15:53:45.299Z,8.93
2023-01-31T15:56:24.414Z,7.95
2023-01-31T15:58:53.765Z,8.88
2023-01-31T16:01:20.631Z,8.70
2023-01-31T16:03:56.510Z,8.40
2023-01-31T16:06:38.258Z,8.23
2023-01-31T16:09:07.659Z,6.45
2023-01-31T16:11:36.221Z,6.18
2023-01-31T16:14:05.649Z,6.55
2023-01-31T16:16:35.346Z,7.10
2023-01-31T16:19:02.756Z,6.55
2023-01-31T16:21:43.184Z,6.93
2023-01-31T16:24:16.897Z,6.57
2023-01-31T16:27:00.115Z,7.32
2023-01-31T16:29:50.829Z,7.47
2023-01-31T16:32:31.271Z,7.70
2023-01-31T16:34:59.686Z,8.73
2023-01-31T16:37:34.762Z,9.57
2023-01-31T16:40:27.766Z,10.00
2023-01-31T16:43:10.831Z,10.00
2023-01-31T16:45:37.561Z,10.30
2023-01-31T16:48:21.663Z,10.07
2023-01-31T16:50:50.161Z,9.15
2023-01-31T16:53:30.611Z,11.15
2023-01-31T16:56:18.822Z,9.15
2023-01-31T16:58:59.290Z,10.38
2023-01-31T17:01:30.160Z,10.77
2023-01-31T17:04:18.477Z,4.63
2023-01-31T17:06:51.000Z,2.75
2023-01-31T17:09:22.155Z,2.92
2023-01-31T17:11:48.961Z,3.15
2023-01-31T17:14:15.688Z,3.28
2023-01-31T17:16:42.570Z,3.42
2023-01-31T17:19:09.471Z,3.92
2023-01-31T17:21:41.495Z,3.53
2023-01-31T17:24:15.119Z,4.72
2023-01-31T17:26:42.357Z,4.20
2023-01-31T17:29:09.187Z,4.28
2023-01-31T17:31:36.276Z,3.75
2023-01-31T17:34:03.800Z,2.28
2023-01-31T17:36:30.533Z,2.03
2023-01-31T17:38:57.320Z,1.70
2023-01-31T17:41:25.092Z,1.77
2023-01-31T17:43:51.997Z,2.38
2023-01-31T17:46:19.211Z,2.80
2023-01-31T17:49:04.840Z,3.90
2023-01-31T17:51:32.749Z,4.20
2023-01-31T17:53:59.733Z,4.93
2023-01-31T17:56:26.492Z,5.30
2023-01-31T17:58:53.276Z,6.75
2023-01-31T18:01:20.157Z,6.63
2023-01-31T18:03:46.942Z,7.90
2023-01-31T18:06:13.669Z,7.60
2023-01-31T18:08:40.438Z,7.90
2023-01-31T18:11:14.159Z,7.85
2023-01-31T18:13:41.518Z,6.95
2023-01-31T18:16:14.713Z,6.50
2023-01-31T18:18:43.725Z,5.82
2023-01-31T18:21:16.527Z,6.28
2023-01-31T18:23:43.549Z,5.72
2023-01-31T18:26:11.316Z,5.22
2023-01-31T18:28:38.122Z,5.50
2023-01-31T18:31:13.666Z,4.10
2023-01-31T18:33:42.347Z,4.38
2023-01-31T18:36:14.966Z,5.25
2023-01-31T18:38:43.989Z,4.80
2023-01-31T18:41:14.323Z,4.47
2023-01-31T18:43:42.314Z,4.25
2023-01-31T18:46:10.194Z,4.28
2023-01-31T18:48:37.443Z,4.43
2023-01-31T18:51:08.426Z,4.45
2023-01-31T18:53:36.495Z,3.28
2023-01-31T18:56:06.046Z,3.53
2023-01-31T18:58:35.943Z,3.78
2023-01-31T19:01:14.048Z,3.67
2023-01-31T19:03:42.992Z,3.80
2023-01-31T19:06:15.564Z,3.20
2023-01-31T19:08:43.370Z,3.35
2023-01-31T19:11:13.462Z,3.38
2023-01-31T19:13:41.530Z,2.70
2023-01-31T19:16:16.824Z,2.70
2023-01-31T19:18:44.562Z,3.60
2023-01-31T19:21:26.358Z,3.28
2023-01-31T19:23:59.362Z,2.78
2023-01-31T19:26:27.233Z,2.92
2023-01-31T19:28:54.769Z,3.13
2023-01-31T19:31:24.358Z,3.45
2023-01-31T19:33:56.133Z,2.90
2023-01-31T19:36:29.368Z,3.53
2023-01-31T19:38:57.585Z,3.08
2023-01-31T19:41:26.730Z,2.58
2023-01-31T19:43:55.861Z,2.88
2023-01-31T19:46:24.255Z,3.17
2023-01-31T19:48:51.002Z,2.95
2023-01-31T19:51:19.381Z,2.88
2023-01-31T19:53:47.400Z,2.67
2023-01-31T19:56:14.641Z,2.78
2023-01-31T19:58:41.643Z,2.97
2023-01-31T20:01:11.630Z,3.78
2023-01-31T20:03:39.185Z,4.25
2023-01-31T20:06:09.167Z,2.35
2023-01-31T20:08:36.860Z,3.15
2023-01-31T20:11:05.930Z,3.25
2023-01-31T20:13:32.633Z,3.08
2023-01-31T20:16:07.904Z,3.50
2023-01-31T20:18:36.305Z,3.05
2023-01-31T20:21:03.740Z,3.53
2023-01-31T20:23:30.572Z,3.33
2023-01-31T20:25:57.413Z,3.13
2023-01-31T20:28:25.070Z,3.00
2023-01-31T20:30:52.423Z,2.95
2023-01-31T20:33:19.356Z,3.45
2023-01-31T20:35:47.799Z,3.42
2023-01-31T20:38:18.206Z,2.88
2023-01-31T20:40:52.689Z,2.78
2023-01-31T20:43:21.511Z,3.03
2023-01-31T20:45:48.744Z,3.13
2023-01-31T20:48:16.820Z,3.08
2023-01-31T20:50:44.096Z,3.45
2023-01-31T20:53:21.401Z,3.22
2023-01-31T20:55:59.530Z,3.30
2023-01-31T20:58:27.497Z,3.78
2023-01-31T21:00:55.790Z,3.13
2023-01-31T21:03:23.408Z,3.17
2023-01-31T21:05:50.537Z,3.15
2023-01-31T21:08:18.284Z,9.20
2023-01-31T21:10:49.977Z,3.42
2023-01-31T21:13:17.631Z,2.97
2023-01-31T21:15:52.441Z,2.90
2023-01-31T21:18:20.419Z,3.60
2023-01-31T21:20:47.691Z,3.13
2023-01-31T21:23:14.439Z,3.55
2023-01-31T21:25:41.227Z,2.88
2023-01-31T21:28:08.148Z,2.90
2023-01-31T21:30:36.262Z,3.03
2023-01-31T21:33:03.146Z,3.38
2023-01-31T21:35:30.063Z,3.38
2023-01-31T21:37:56.880Z,3.15
2023-01-31T21:40:23.868Z,3.15
2023-01-31T21:42:51.886Z,3.08
2023-01-31T21:45:39.259Z,3.47
2023-01-31T21:48:29.397Z,3.08
2023-01-31T21:50:57.311Z,2.63
2023-01-31T21:53:24.187Z,3.30
2023-01-31T21:55:59.529Z,2.78
2023-01-31T21:58:26.488Z,3.15
2023-01-31T22:00:53.225Z,3.40
2023-01-31T22:03:19.922Z,2.45
2023-01-31T22:05:46.777Z,3.95
2023-01-31T22:08:13.535Z,3.03
2023-01-31T22:10:40.264Z,3.65
2023-01-31T22:13:07.007Z,3.83
2023-01-31T22:15:35.412Z,3.00
2023-01-31T22:18:02.205Z,3.88
2023-01-31T22:20:28.956Z,3.55
2023-01-31T22:22:55.820Z,3.00
2023-01-31T22:25:22.528Z,2.80
2023-01-31T22:27:51.649Z,3.40
2023-01-31T22:30:18.445Z,3.25
2023-01-31T22:32:45.460Z,3.05
2023-01-31T22:35:12.171Z,3.38
2023-01-31T22:37:38.861Z,3.60
2023-01-31T22:40:06.080Z,2.63
2023-01-31T22:42:32.805Z,2.92
2023-01-31T22:44:59.537Z,3.53
2023-01-31T22:47:26.252Z,2.95
2023-01-31T22:49:53.060Z,3.33
2023-01-31T22:52:20.061Z,3.15
2023-01-31T22:54:46.721Z,3.08
2023-01-31T22:57:13.431Z,3.13
2023-01-31T22:59:40.142Z,3.58
2023-01-31T23:02:06.919Z,3.15
2023-01-31T23:04:34.088Z,3.65
2023-01-31T23:07:00.793Z,3.15
2023-01-31T23:09:27.502Z,3.70
2023-01-31T23:11:54.213Z,2.95
2023-01-31T23:14:21.541Z,3.25
2023-01-31T23:17:07.177Z,3.42
2023-01-31T23:19:33.979Z,3.45
2023-01-31T23:22:00.801Z,3.17
2023-01-31T23:24:27.710Z,3.53
2023-01-31T23:26:56.287Z,3.28
2023-01-31T23:29:23.262Z,3.60
2023-01-31T23:31:50.074Z,3.00
2023-01-31T23:34:16.777Z,3.83
2023-01-31T23:36:43.528Z,3.92
2023-01-31T23:39:10.339Z,3.80
2023-01-31T23:41:37.096Z,3.97
2023-01-31T23:44:04.122Z,3.63
2023-01-31T23:46:31.370Z,3.08
2023-01-31T23:48:58.149Z,3.45
2023-01-31T23:51:26.651Z,3.67
2023-01-31T23:53:53.394Z,3.42
2023-01-31T23:56:20.191Z,3.20
2023-01-31T23:58:47.156Z,3.70
